Time;durP1;ratioP1;P1;durP2;ratioP2;P2;SDS_P1;SDS_P2;PMS_P1;PMS_P2;Temp;Humidity;BMP_temperature;BMP_pressure;BME280_temperature;BME280_humidity;BME280_pressure;Samples;Min_cycle;Max_cycle;Signal;HPM_P1;HPM_P2
2023/10/17 00:01:47;;;;;;;2.17;1.17;;;10.90;99.90;;;;;;5013269;28;20116;-80
2023/10/17 00:04:27;;;;;;;3.03;2.58;;;10.80;99.90;;;;;;5014638;28;20021;-81
2023/10/17 00:07:02;;;;;;;0.40;0.40;;;10.70;99.90;;;;;;5014373;28;20030;-81
2023/10/17 00:09:29;;;;;;;0.28;0.28;;;10.70;99.90;;;;;;5014406;28;20125;-82
2023/10/17 00:11:58;;;;;;;0.40;0.30;;;10.60;99.90;;;;;;5014576;28;20022;-81
2023/10/17 00:14:34;;;;;;;0.10;0.10;;;10.70;99.90;;;;;;5014303;28;20465;-81
2023/10/17 00:17:03;;;;;;;0.30;0.30;;;10.60;99.90;;;;;;5014201;28;20028;-81
2023/10/17 00:19:32;;;;;;;1.38;0.95;;;10.60;99.90;;;;;;5029363;28;20030;-81
2023/10/17 00:21:59;;;;;;;0.40;0.40;;;10.80;99.90;;;;;;5028995;28;20033;-81
2023/10/17 00:24:25;;;;;;;1.52;1.02;;;10.80;99.90;;;;;;5014265;28;20021;-81
2023/10/17 00:26:51;;;;;;;0.30;0.30;;;10.60;99.90;;;;;;5013879;28;20030;-81
2023/10/17 00:29:17;;;;;;;0.57;0.57;;;10.50;99.90;;;;;;5013932;28;20088;-81
2023/10/17 00:31:45;;;;;;;1.55;0.52;;;10.50;99.90;;;;;;5029447;28;20048;-81
2023/10/17 00:34:21;;;;;;;0.15;0.15;;;10.60;99.90;;;;;;5013562;28;20045;-82
2023/10/17 00:36:48;;;;;;;0.20;0.20;;;10.60;99.90;;;;;;5012693;28;20042;-81
2023/10/17 00:39:32;;;;;;;0.75;0.73;;;10.50;99.90;;;;;;5013787;28;20359;-81
2023/10/17 00:44:46;;;;;;;0.20;0.20;;;10.60;99.90;;;;;;5013593;28;20033;-82
2023/10/17 00:47:13;;;;;;;5.32;1.95;;;10.40;99.90;;;;;;5012440;28;20044;-82
2023/10/17 00:49:44;;;;;;;0.17;0.17;;;10.40;99.90;;;;;;5012055;28;20366;-82
2023/10/17 00:52:36;;;;;;;3.27;1.30;;;10.50;99.90;;;;;;5028824;28;20030;-81
2023/10/17 00:55:04;;;;;;;0.10;0.10;;;10.40;99.90;;;;;;5010074;28;20033;-81
2023/10/17 00:57:31;;;;;;;0.63;0.63;;;10.40;99.90;;;;;;5013875;28;20022;-81
2023/10/17 01:03:01;;;;;;;0.13;0.13;;;10.40;99.90;;;;;;4990625;28;20054;-81
2023/10/17 01:05:28;;;;;;;0.10;0.10;;;10.50;99.90;;;;;;5028148;28;20034;-80
2023/10/17 01:07:54;;;;;;;1.05;0.93;;;10.60;99.90;;;;;;5013341;28;20034;-81
2023/10/17 01:10:24;;;;;;;0.10;0.10;;;10.60;99.90;;;;;;5028610;28;20355;-81
2023/10/17 01:12:53;;;;;;;0.20;0.20;;;10.60;99.90;;;;;;5013369;28;20095;-81
2023/10/17 01:15:22;;;;;;;0.22;0.22;;;10.60;99.90;;;;;;5011745;28;20032;-81
2023/10/17 01:17:48;;;;;;;1.50;0.95;;;10.60;99.90;;;;;;5005896;28;20061;-82
2023/10/17 01:20:20;;;;;;;0.05;0.05;;;10.50;99.90;;;;;;5027997;28;20061;-81
2023/10/17 01:22:48;;;;;;;0.25;0.25;;;10.40;99.90;;;;;;5013341;28;20062;-81
2023/10/17 01:25:29;;;;;;;0.10;0.10;;;10.50;99.90;;;;;;5012914;28;20068;-82
2023/10/17 01:27:59;;;;;;;0.32;0.32;;;10.40;99.90;;;;;;5012050;28;20034;-81
2023/10/17 01:30:34;;;;;;;0.10;0.10;;;10.40;99.90;;;;;;5011457;28;20026;-81
2023/10/17 01:33:01;;;;;;;0.25;0.25;;;10.40;99.90;;;;;;5011427;28;20117;-82
2023/10/17 01:35:27;;;;;;;0.08;0.08;;;10.40;99.90;;;;;;5013194;28;20421;-82
2023/10/17 01:37:55;;;;;;;0.55;0.38;;;10.60;99.90;;;;;;5028345;28;20109;-81
2023/10/17 01:40:27;;;;;;;0.10;0.10;;;10.60;99.90;;;;;;5028040;28;20422;-82
2023/10/17 01:42:54;;;;;;;1.55;1.23;;;10.60;99.90;;;;;;5028133;28;20069;-81
2023/10/17 01:45:30;;;;;;;1.35;0.80;;;10.50;99.90;;;;;;5012866;28;20018;-81
2023/10/17 01:47:56;;;;;;;1.08;0.73;;;10.30;99.90;;;;;;5012634;28;20025;-82
2023/10/17 01:50:24;;;;;;;0.93;0.65;;;10.10;99.90;;;;;;5027971;28;20045;-80
2023/10/17 01:52:53;;;;;;;0.20;0.20;;;10.30;99.90;;;;;;5012862;28;20072;-81
2023/10/17 01:55:24;;;;;;;3.88;2.78;;;10.10;99.90;;;;;;5014545;28;20025;-81
2023/10/17 01:57:54;;;;;;;0.32;0.32;;;10.20;99.90;;;;;;5015726;28;20061;-82
2023/10/17 02:00:55;;;;;;;2.65;1.45;;;10.40;99.90;;;;;;5031914;28;20034;-81
2023/10/17 02:03:12;;;;;;;0.10;0.10;;;10.40;99.90;;;;;;5014787;28;20050;-81
2023/10/17 02:05:38;;;;;;;4.78;2.45;;;10.60;99.90;;;;;;5031891;28;20099;-81
2023/10/17 02:08:05;;;;;;;0.47;0.47;;;10.30;99.90;;;;;;5015258;28;20556;-81
2023/10/17 02:10:32;;;;;;;1.92;1.83;;;10.30;99.90;;;;;;5015380;28;20026;-82
2023/10/17 02:12:59;;;;;;;2.78;1.85;;;10.20;99.90;;;;;;5016614;28;20037;-81
2023/10/17 02:15:26;;;;;;;0.15;0.15;;;10.10;99.90;;;;;;5016709;28;20475;-81
2023/10/17 02:17:53;;;;;;;0.10;0.10;;;10.30;99.90;;;;;;5016241;28;20101;-80
2023/10/17 02:20:30;;;;;;;0.65;0.65;;;10.20;99.90;;;;;;5016201;28;20116;-81
2023/10/17 02:23:12;;;;;;;0.85;0.85;;;10.10;99.90;;;;;;5016394;28;20065;-81
2023/10/17 02:25:41;;;;;;;0.75;0.43;;;10.20;99.90;;;;;;5015059;28;20504;-82
2023/10/17 02:28:07;;;;;;;0.40;0.40;;;10.20;99.90;;;;;;5016370;28;20051;-82
2023/10/17 02:30:33;;;;;;;0.40;0.40;;;10.30;99.90;;;;;;5016119;28;20026;-82
2023/10/17 02:33:10;;;;;;;1.02;0.50;;;10.40;99.90;;;;;;5015908;28;20034;-81
2023/10/17 02:35:40;;;;;;;1.00;1.00;;;10.30;99.90;;;;;;5015947;28;20034;-81
2023/10/17 02:38:08;;;;;;;10.45;1.13;;;10.00;99.90;;;;;;5016205;28;20095;-81
2023/10/17 02:40:34;;;;;;;1.30;1.27;;;10.00;99.90;;;;;;5016042;28;20442;-81
2023/10/17 02:43:01;;;;;;;0.17;0.17;;;10.10;99.90;;;;;;5016458;28;20025;-81
2023/10/17 02:45:27;;;;;;;47.65;3.30;;;10.00;99.90;;;;;;5001325;28;20600;-81
2023/10/17 02:48:06;;;;;;;0.32;0.32;;;10.00;99.90;;;;;;5012745;28;20164;-82
2023/10/17 02:53:06;;;;;;;3.00;0.68;;;9.90;99.90;;;;;;5015702;28;20112;-81
2023/10/17 02:55:31;;;;;;;0.52;0.43;;;9.90;99.90;;;;;;5016022;28;20065;-81
2023/10/17 02:57:57;;;;;;;0.70;0.70;;;10.00;99.90;;;;;;5015395;28;20534;-81
2023/10/17 03:00:33;;;;;;;0.20;0.20;;;10.00;99.90;;;;;;5013291;28;20474;-81
2023/10/17 03:02:59;;;;;;;0.98;0.52;;;10.10;99.90;;;;;;5015309;28;20030;-81
2023/10/17 03:05:27;;;;;;;1.98;1.77;;;9.90;99.90;;;;;;5014024;28;20029;-81
2023/10/17 03:07:53;;;;;;;0.20;0.20;;;9.80;99.90;;;;;;5015595;28;20034;-81
2023/10/17 03:10:37;;;;;;;0.35;0.35;;;9.90;99.90;;;;;;5030874;28;20112;-81
2023/10/17 03:13:39;;;;;;;2.00;0.70;;;9.90;99.90;;;;;;4999290;28;20031;-81
2023/10/17 03:18:50;;;;;;;0.52;0.52;;;10.00;99.90;;;;;;5030376;28;20030;-80
2023/10/17 03:21:18;;;;;;;1.23;0.40;;;10.10;99.90;;;;;;5015157;28;20548;-80
2023/10/17 03:24:00;;;;;;;0.10;0.10;;;10.10;99.90;;;;;;5015453;28;20030;-81
2023/10/17 03:26:29;;;;;;;0.10;0.10;;;9.90;99.90;;;;;;5013764;28;20125;-81
2023/10/17 03:28:55;;;;;;;0.80;0.80;;;10.00;99.90;;;;;;5029932;28;20368;-81
2023/10/17 03:31:21;;;;;;;0.45;0.15;;;10.00;99.90;;;;;;5013559;28;20037;-81
2023/10/17 03:33:53;;;;;;;1.45;0.63;;;10.10;99.90;;;;;;5013978;28;20486;-81
2023/10/17 03:36:41;;;;;;;0.20;0.20;;;10.10;99.90;;;;;;5015005;28;20061;-81
2023/10/17 03:39:27;;;;;;;3.65;1.55;;;10.20;99.90;;;;;;5013720;28;20030;-81
2023/10/17 03:41:56;;;;;;;0.15;0.15;;;10.20;99.90;;;;;;5014843;28;20133;-81
2023/10/17 03:44:30;;;;;;;0.68;0.68;;;10.20;99.90;;;;;;5013077;28;20030;-81
2023/10/17 03:46:59;;;;;;;0.82;0.77;;;10.00;99.90;;;;;;5015525;28;20471;-80
2023/10/17 03:49:36;;;;;;;0.45;0.45;;;10.10;99.90;;;;;;5014556;28;20025;-81
2023/10/17 03:52:06;;;;;;;0.55;0.55;;;10.00;99.90;;;;;;5014705;28;20022;-81
2023/10/17 03:54:38;;;;;;;0.10;0.10;;;10.00;99.90;;;;;;5014446;28;20034;-81
2023/10/17 03:57:15;;;;;;;0.10;0.10;;;10.10;99.90;;;;;;5014544;28;20022;-81
2023/10/17 03:59:42;;;;;;;0.10;0.10;;;10.20;99.90;;;;;;5014338;28;20026;-82
2023/10/17 04:02:24;;;;;;;0.80;0.80;;;10.40;99.90;;;;;;5014133;28;20501;-81
2023/10/17 04:04:57;;;;;;;0.20;0.20;;;10.50;99.90;;;;;;5013182;28;20390;-81
2023/10/17 04:07:26;;;;;;;0.57;0.57;;;10.60;99.90;;;;;;5014181;28;20386;-81
2023/10/17 04:09:52;;;;;;;0.35;0.35;;;10.40;99.90;;;;;;5014705;28;20121;-81
2023/10/17 04:12:31;;;;;;;1.75;0.82;;;10.30;99.90;;;;;;5013873;28;20120;-81
2023/10/17 04:15:04;;;;;;;0.57;0.57;;;10.30;99.90;;;;;;5014128;28;20556;-81
2023/10/17 04:17:31;;;;;;;0.98;0.52;;;10.30;99.90;;;;;;5013352;28;20441;-81
2023/10/17 04:20:11;;;;;;;1.38;0.80;;;10.10;99.90;;;;;;5014056;28;20029;-82
2023/10/17 04:22:38;;;;;;;0.10;0.10;;;10.10;99.90;;;;;;5014104;28;20045;-81
2023/10/17 04:25:23;;;;;;;0.63;0.63;;;10.20;99.90;;;;;;5014019;28;20485;-81
2023/10/17 04:27:58;;;;;;;0.60;0.35;;;10.20;99.90;;;;;;5014036;28;20427;-80
2023/10/17 04:30:46;;;;;;;2.72;0.63;;;10.10;99.90;;;;;;5013972;28;20495;-81
2023/10/17 04:33:19;;;;;;;2.55;1.98;;;10.00;99.90;;;;;;5014200;28;20104;-81
2023/10/17 04:35:53;;;;;;;0.35;0.35;;;9.90;99.90;;;;;;5013698;28;20061;-81
2023/10/17 04:38:19;;;;;;;0.73;0.30;;;9.90;99.90;;;;;;5013739;28;20109;-81
2023/10/17 04:40:57;;;;;;;0.10;0.10;;;9.90;99.90;;;;;;5013794;28;20073;-80
2023/10/17 04:46:08;;;;;;;0.57;0.57;;;10.00;99.90;;;;;;5013696;28;20088;-80
2023/10/17 04:48:40;;;;;;;0.10;0.10;;;9.90;99.90;;;;;;5029087;28;20029;-81
2023/10/17 04:51:19;;;;;;;0.15;0.15;;;9.80;99.90;;;;;;5013521;28;20505;-80
2023/10/17 04:53:49;;;;;;;0.20;0.20;;;9.70;99.90;;;;;;5013892;28;20509;-79
2023/10/17 04:56:22;;;;;;;3.47;1.58;;;9.80;99.90;;;;;;5028797;28;20018;-80
2023/10/17 04:58:53;;;;;;;0.57;0.57;;;9.70;99.90;;;;;;5013521;28;20061;-80
2023/10/17 06:17:31;;;;;;;1.00;0.85;;;9.70;99.90;;;;;;5010726;28;20105;-79
2023/10/17 06:19:59;;;;;;;0.40;0.40;;;9.60;99.90;;;;;;5011524;28;20550;-79
2023/10/17 06:30:27;;;;;;;0.75;0.55;;;9.90;99.90;;;;;;5011620;28;20042;-81
2023/10/17 06:35:46;;;;;;;0.20;0.20;;;9.70;99.90;;;;;;5011357;28;20037;-79
2023/10/17 06:38:16;;;;;;;0.35;0.35;;;9.80;99.90;;;;;;5011319;28;20041;-83
2023/10/17 06:40:46;;;;;;;0.52;0.52;;;9.70;99.90;;;;;;5012934;28;20048;-79
2023/10/17 06:43:14;;;;;;;0.10;0.10;;;9.90;99.90;;;;;;5015700;28;20032;-81
2023/10/17 06:46:11;;;;;;;0.95;0.95;;;9.80;99.90;;;;;;5016283;28;20041;-81
2023/10/17 06:48:37;;;;;;;0.88;0.80;;;9.80;99.90;;;;;;5019056;28;20441;-79
2023/10/17 06:53:31;;;;;;;0.20;0.20;;;9.80;99.90;;;;;;5015067;28;20033;-79
2023/10/17 06:56:09;;;;;;;1.17;0.80;;;9.90;99.90;;;;;;5015152;28;20149;-83
2023/10/17 06:58:35;;;;;;;0.10;0.10;;;9.90;99.90;;;;;;5010399;28;20479;-79
2023/10/17 07:01:04;;;;;;;0.30;0.30;;;9.60;99.90;;;;;;5015003;28;20037;-82
2023/10/17 07:03:37;;;;;;;0.10;0.10;;;9.70;99.90;;;;;;5017018;28;20179;-83
2023/10/17 07:06:24;;;;;;;2.20;1.33;;;9.70;99.90;;;;;;5016554;28;20034;-83
2023/10/17 07:08:50;;;;;;;0.30;0.30;;;9.70;99.90;;;;;;5016418;28;20077;-83
2023/10/17 07:14:10;;;;;;;0.10;0.10;;;9.70;99.90;;;;;;5015864;28;20407;-84
2023/10/17 07:24:33;;;;;;;0.75;0.75;;;9.80;99.90;;;;;;5031242;28;20483;-82
2023/10/17 07:27:01;;;;;;;3.97;1.02;;;9.80;99.90;;;;;;5015847;28;20540;-81
2023/10/17 07:29:33;;;;;;;0.52;0.32;;;9.90;99.90;;;;;;5014118;28;20442;-81
2023/10/17 07:32:01;;;;;;;0.30;0.30;;;10.00;99.90;;;;;;5013954;28;20493;-78
2023/10/17 07:34:36;;;;;;;0.40;0.40;;;10.00;99.90;;;;;;5028713;28;20030;-79
2023/10/17 07:37:12;;;;;;;0.55;0.55;;;10.10;99.90;;;;;;5013305;28;20486;-78
2023/10/17 07:39:39;;;;;;;2.80;1.10;;;10.10;99.90;;;;;;5015010;28;20065;-79
2023/10/17 07:42:14;;;;;;;0.30;0.30;;;10.20;99.90;;;;;;5014806;28;20084;-78
2023/10/17 07:44:43;;;;;;;4.75;2.55;;;10.20;99.90;;;;;;5014675;28;20475;-78
2023/10/17 07:47:09;;;;;;;1.52;1.23;;;10.30;99.90;;;;;;5014743;28;20038;-78
2023/10/17 07:49:36;;;;;;;8.20;5.38;;;10.30;99.90;;;;;;5014558;28;20056;-79
2023/10/17 07:52:22;;;;;;;1.65;1.55;;;10.40;99.90;;;;;;5012284;28;20480;-78
2023/10/17 07:57:40;;;;;;;0.52;0.30;;;10.50;99.90;;;;;;5014604;28;20022;-78
2023/10/17 08:00:24;;;;;;;0.10;0.10;;;10.80;99.90;;;;;;5014284;28;20033;-78
2023/10/17 08:02:51;;;;;;;0.30;0.30;;;11.00;99.90;;;;;;5013922;28;20123;-78
2023/10/17 08:05:23;;;;;;;0.00;0.00;;;10.80;99.90;;;;;;5014292;28;20045;-79
2023/10/17 08:07:49;;;;;;;0.52;0.47;;;10.80;99.90;;;;;;5014564;28;20087;-78
2023/10/17 08:10:29;;;;;;;0.10;0.10;;;11.20;99.90;;;;;;5014331;28;20552;-78
2023/10/17 08:12:58;;;;;;;0.40;0.40;;;11.40;99.90;;;;;;5014595;28;20056;-78
2023/10/17 08:15:32;;;;;;;0.30;0.30;;;11.20;99.90;;;;;;5029775;28;20114;-79
2023/10/17 08:17:58;;;;;;;0.43;0.28;;;11.20;99.90;;;;;;5014577;28;20041;-79
2023/10/17 08:20:45;;;;;;;2.25;2.05;;;11.20;99.90;;;;;;5013636;28;20021;-79
2023/10/17 08:23:11;;;;;;;0.20;0.20;;;11.30;99.90;;;;;;5014462;28;20034;-78
2023/10/17 08:25:53;;;;;;;0.20;0.20;;;11.20;99.90;;;;;;5012761;28;20140;-78
2023/10/17 08:31:17;;;;;;;1.08;1.00;;;10.80;99.90;;;;;;5013737;28;20029;-78
2023/10/17 08:33:47;;;;;;;0.30;0.30;;;11.00;99.90;;;;;;5013788;28;20026;-79
2023/10/17 08:36:13;;;;;;;0.70;0.70;;;11.20;99.90;;;;;;5014097;28;20018;-78
2023/10/17 08:38:40;;;;;;;0.30;0.30;;;11.30;99.90;;;;;;5013908;28;20041;-78
2023/10/17 08:41:08;;;;;;;0.10;0.10;;;11.30;99.90;;;;;;5013620;28;20026;-79
2023/10/17 08:43:36;;;;;;;0.10;0.10;;;11.40;99.90;;;;;;5013965;28;20021;-78
2023/10/17 08:46:07;;;;;;;1.08;0.95;;;11.30;99.90;;;;;;5028777;28;20030;-78
2023/10/17 08:48:36;;;;;;;0.90;0.90;;;11.00;99.90;;;;;;5013693;28;20104;-78
2023/10/17 08:51:06;;;;;;;2.42;1.30;;;10.90;99.90;;;;;;5013592;28;20022;-78
2023/10/17 08:53:32;;;;;;;0.10;0.10;;;11.00;99.90;;;;;;5013746;28;20037;-78
2023/10/17 08:55:59;;;;;;;0.45;0.43;;;11.10;99.90;;;;;;5013579;28;20466;-79
2023/10/17 08:58:32;;;;;;;0.57;0.57;;;11.30;99.90;;;;;;5013663;28;20097;-79
2023/10/17 09:01:13;;;;;;;0.10;0.10;;;11.50;99.90;;;;;;5013364;28;20037;-79
2023/10/17 09:03:46;;;;;;;4.03;0.80;;;11.70;99.90;;;;;;5012975;28;20474;-79
2023/10/17 09:08:52;;;;;;;;;;;11.60;99.90;;;;;;5010676;28;20053;-79
2023/10/17 09:11:29;;;;;;;0.63;0.45;;;11.80;99.90;;;;;;5012010;28;19917;-80
2023/10/17 09:16:48;;;;;;;0.15;0.15;;;12.60;99.90;;;;;;5013302;28;20037;-79
2023/10/17 09:19:14;;;;;;;0.45;0.43;;;12.70;99.90;;;;;;5013153;28;20030;-80
2023/10/17 09:21:47;;;;;;;0.32;0.32;;;12.90;99.90;;;;;;5012888;28;20034;-80
2023/10/17 09:24:37;;;;;;;0.85;0.47;;;12.80;99.90;;;;;;5013333;28;20037;-80
2023/10/17 09:27:10;;;;;;;0.55;0.52;;;12.90;99.90;;;;;;5013260;28;20030;-80
2023/10/17 09:29:46;;;;;;;1.77;0.85;;;13.10;99.90;;;;;;5013125;28;20034;-80
2023/10/17 09:32:12;;;;;;;1.48;0.38;;;13.10;99.90;;;;;;5012985;28;20108;-80
2023/10/17 09:34:44;;;;;;;0.10;0.10;;;13.20;99.90;;;;;;5012960;28;20466;-80
2023/10/17 09:37:15;;;;;;;1.15;0.65;;;13.20;99.90;;;;;;5011909;28;20034;-79
2023/10/17 09:39:47;;;;;;;0.63;0.52;;;12.90;99.90;;;;;;5028010;28;20386;-80
2023/10/17 09:42:14;;;;;;;0.00;0.00;;;12.90;99.90;;;;;;5012895;28;20108;-79
2023/10/17 09:44:40;;;;;;;0.20;0.20;;;12.90;99.90;;;;;;5013006;28;20378;-78
2023/10/17 09:47:08;;;;;;;0.60;0.60;;;13.10;99.90;;;;;;5012640;28;20040;-79
2023/10/17 09:49:43;;;;;;;0.77;0.47;;;13.30;99.90;;;;;;5012885;28;20030;-79
2023/10/17 09:52:10;;;;;;;0.20;0.20;;;13.40;99.90;;;;;;5028103;28;20482;-78
2023/10/17 09:54:40;;;;;;;0.15;0.15;;;13.50;99.90;;;;;;5012716;28;20026;-79
2023/10/17 09:57:14;;;;;;;0.20;0.20;;;13.80;99.90;;;;;;5013049;28;20469;-78
2023/10/17 09:59:56;;;;;;;0.00;0.00;;;13.70;99.90;;;;;;5013079;28;20688;-78
2023/10/17 10:02:23;;;;;;;;;;;13.90;99.90;;;;;;5004414;28;20117;-74
2023/10/17 10:04:48;;;;;;;0.70;0.40;;;14.50;99.90;;;;;;5008695;28;19935;-73
2023/10/17 10:07:20;;;;;;;0.80;0.73;;;14.60;99.90;;;;;;5012009;28;20071;-75
2023/10/17 10:09:46;;;;;;;0.40;0.40;;;15.10;99.90;;;;;;5023674;28;20029;-76
2023/10/17 10:12:14;;;;;;;0.90;0.55;;;14.90;99.90;;;;;;5012752;28;20037;-74
2023/10/17 10:14:42;;;;;;;1.27;0.35;;;14.90;99.90;;;;;;5012591;28;20026;-75
2023/10/17 10:17:09;;;;;;;0.15;0.15;;;15.40;99.90;;;;;;5015352;28;20496;-73
2023/10/17 10:19:41;;;;;;;0.20;0.20;;;15.30;99.90;;;;;;5015085;28;20388;-73
2023/10/17 10:22:10;;;;;;;0.52;0.52;;;15.40;99.90;;;;;;5016193;28;20048;-74
2023/10/17 10:24:36;;;;;;;0.32;0.32;;;16.00;99.90;;;;;;5016486;28;20025;-74
2023/10/17 10:27:09;;;;;;;0.40;0.40;;;16.40;99.90;;;;;;5016365;28;20371;-75
2023/10/17 10:29:35;;;;;;;0.10;0.10;;;16.70;97.90;;;;;;5016012;28;20049;-80
2023/10/17 10:32:05;;;;;;;0.22;0.22;;;16.90;98.30;;;;;;5015226;28;20482;-72
2023/10/17 10:34:39;;;;;;;0.52;0.22;;;17.10;96.90;;;;;;5014927;28;20489;-76
2023/10/17 10:37:07;;;;;;;0.08;0.08;;;16.90;98.40;;;;;;5005841;28;20030;-76
2023/10/17 10:39:33;;;;;;;2.08;0.73;;;17.20;98.70;;;;;;5014648;28;20058;-77
2023/10/17 10:42:00;;;;;;;0.88;0.50;;;17.00;97.10;;;;;;5009690;28;20119;-78
2023/10/17 10:44:38;;;;;;;0.00;0.00;;;17.50;96.50;;;;;;5014295;28;20116;-78
2023/10/17 10:47:06;;;;;;;0.22;0.22;;;17.60;96.00;;;;;;5014570;28;20053;-75
2023/10/17 10:49:32;;;;;;;0.32;0.32;;;17.40;96.20;;;;;;5014794;28;20030;-75
2023/10/17 10:51:58;;;;;;;0.00;0.00;;;17.00;96.70;;;;;;5014586;28;20018;-74
2023/10/17 10:54:59;;;;;;;0.20;0.20;;;17.20;97.50;;;;;;5014555;28;20029;-75
2023/10/17 10:57:28;;;;;;;0.20;0.20;;;17.30;96.40;;;;;;4965028;28;20049;-75
2023/10/17 10:59:54;;;;;;;2.83;0.73;;;17.20;95.90;;;;;;5014170;28;20488;-75
2023/10/17 11:02:20;;;;;;;14.43;1.42;;;17.60;96.10;;;;;;5014298;28;20124;-75
2023/10/17 11:04:49;;;;;;;0.10;0.10;;;18.10;95.10;;;;;;5014529;28;20093;-76
2023/10/17 11:07:22;;;;;;;0.10;0.10;;;18.40;94.90;;;;;;5003662;28;20544;-75
2023/10/17 11:10:07;;;;;;;0.13;0.13;;;19.00;93.10;;;;;;5014038;28;20439;-76
2023/10/17 11:12:34;;;;;;;0.43;0.25;;;19.10;91.50;;;;;;5000818;28;20402;-77
2023/10/17 11:15:10;;;;;;;0.28;0.28;;;18.80;91.80;;;;;;5029355;28;20034;-78
2023/10/17 11:17:37;;;;;;;0.00;0.00;;;18.20;93.20;;;;;;5014187;28;20062;-77
2023/10/17 11:20:13;;;;;;;1.38;0.65;;;18.50;94.10;;;;;;5014561;28;20034;-77
2023/10/17 11:22:40;;;;;;;1.02;0.73;;;18.80;93.80;;;;;;5014176;28;20494;-76
2023/10/17 11:25:13;;;;;;;0.10;0.10;;;18.70;92.60;;;;;;5014063;28;20429;-78
2023/10/17 11:27:56;;;;;;;0.10;0.10;;;19.10;93.30;;;;;;5012318;28;20026;-77
2023/10/17 11:30:32;;;;;;;8.88;0.60;;;19.60;91.40;;;;;;5014224;28;20156;-78
2023/10/17 11:33:05;;;;;;;0.10;0.10;;;19.30;91.50;;;;;;4973409;28;1169316;-77
2023/10/17 11:35:34;;;;;;;0.40;0.40;;;19.20;92.00;;;;;;5015205;28;20044;-77
2023/10/17 11:38:00;;;;;;;1.27;1.17;;;19.20;92.20;;;;;;5015035;28;20026;-77
2023/10/17 11:40:46;;;;;;;0.75;0.32;;;18.70;93.10;;;;;;5014856;28;20109;-81
2023/10/17 11:43:20;;;;;;;0.30;0.20;;;17.60;92.80;;;;;;5014340;28;20174;-78
2023/10/17 11:45:47;;;;;;;0.00;0.00;;;17.60;93.90;;;;;;5015236;28;20410;-78
2023/10/17 11:48:26;;;;;;;0.70;0.35;;;18.20;93.20;;;;;;5014542;28;20115;-77
2023/10/17 11:51:12;;;;;;;0.00;0.00;;;19.00;92.90;;;;;;5015066;28;20049;-78
2023/10/17 11:54:04;;;;;;;0.10;0.10;;;19.00;92.30;;;;;;5003442;28;20030;-78
2023/10/17 11:56:37;;;;;;;0.32;0.32;;;19.10;91.90;;;;;;5014479;28;20033;-78
2023/10/17 11:59:06;;;;;;;0.17;0.17;;;19.30;92.10;;;;;;5014713;28;20045;-78
2023/10/17 12:01:33;;;;;;;1.77;1.50;;;18.90;91.80;;;;;;5014369;28;20079;-78
2023/10/17 12:04:06;;;;;;;0.13;0.13;;;19.10;91.70;;;;;;5014411;28;20030;-78
2023/10/17 12:06:34;;;;;;;0.10;0.08;;;18.90;91.50;;;;;;5029927;28;20468;-79
2023/10/17 12:09:17;;;;;;;0.00;0.00;;;19.10;91.30;;;;;;5013040;28;20018;-78
2023/10/17 12:11:46;;;;;;;0.52;0.25;;;19.50;92.20;;;;;;5014314;28;20113;-79
2023/10/17 12:14:19;;;;;;;0.30;0.30;;;19.70;90.60;;;;;;5014011;28;20024;-78
2023/10/17 12:16:58;;;;;;;0.10;0.10;;;20.40;89.70;;;;;;5014436;28;20034;-78
2023/10/17 12:19:28;;;;;;;0.10;0.10;;;20.20;89.00;;;;;;5014133;28;20045;-78
2023/10/17 12:21:56;;;;;;;0.00;0.00;;;19.60;90.70;;;;;;5014426;28;20088;-78
2023/10/17 12:24:28;;;;;;;0.90;0.20;;;19.60;90.30;;;;;;5014247;28;20547;-78
2023/10/17 12:26:55;;;;;;;0.00;0.00;;;20.00;90.30;;;;;;5013750;28;20036;-78
2023/10/17 12:29:25;;;;;;;0.28;0.25;;;20.80;87.80;;;;;;5014044;28;20026;-78
2023/10/17 12:31:54;;;;;;;0.10;0.10;;;21.90;84.40;;;;;;5014285;28;20034;-78
2023/10/17 12:34:20;;;;;;;0.00;0.00;;;21.50;85.80;;;;;;5013608;28;20045;-78
2023/10/17 12:36:48;;;;;;;0.20;0.20;;;21.20;84.60;;;;;;5013936;28;20522;-78
2023/10/17 12:39:16;;;;;;;0.43;0.35;;;20.60;84.40;;;;;;5012930;28;20394;-78
2023/10/17 12:41:46;;;;;;;0.00;0.00;;;20.30;87.00;;;;;;5013659;28;20486;-78
2023/10/17 12:44:12;;;;;;;0.28;0.28;;;20.90;86.80;;;;;;5013956;28;20038;-78
2023/10/17 12:46:39;;;;;;;0.17;0.17;;;20.20;86.50;;;;;;4999620;28;20041;-78
2023/10/17 12:49:06;;;;;;;0.00;0.00;;;20.40;86.60;;;;;;5013708;28;20072;-78
2023/10/17 12:51:33;;;;;;;2.20;0.32;;;21.00;85.20;;;;;;5013074;28;20065;-78
2023/10/17 12:53:59;;;;;;;0.13;0.13;;;21.20;85.00;;;;;;5012464;28;20096;-79
2023/10/17 12:56:24;;;;;;;0.10;0.10;;;20.90;83.60;;;;;;5012539;28;20030;-78
2023/10/17 12:58:51;;;;;;;0.68;0.68;;;20.90;85.10;;;;;;5013777;28;20030;-79
2023/10/17 13:01:17;;;;;;;1.15;1.00;;;20.70;83.30;;;;;;5013177;28;20042;-78
2023/10/17 13:03:43;;;;;;;0.05;0.05;;;20.60;83.20;;;;;;5013879;28;20471;-79
2023/10/17 13:06:09;;;;;;;0.00;0.00;;;20.80;84.40;;;;;;5013339;28;20055;-79
2023/10/17 13:08:35;;;;;;;0.28;0.28;;;21.80;82.80;;;;;;5013136;28;20466;-79
2023/10/17 13:11:06;;;;;;;0.30;0.30;;;22.20;81.90;;;;;;5013114;28;20387;-79
2023/10/17 13:13:32;;;;;;;0.13;0.13;;;22.30;82.00;;;;;;5013245;28;20052;-73
2023/10/17 13:15:59;;;;;;;0.00;0.00;;;22.00;81.20;;;;;;5013314;28;20534;-74
2023/10/17 13:18:28;;;;;;;0.00;0.00;;;22.60;80.50;;;;;;5012068;28;20037;-74
2023/10/17 13:20:58;;;;;;;0.43;0.43;;;23.30;79.00;;;;;;5012769;28;20040;-79
2023/10/17 13:23:24;;;;;;;0.00;0.00;;;22.90;78.40;;;;;;5013009;28;20025;-80
2023/10/17 13:25:50;;;;;;;0.55;0.17;;;22.80;78.30;;;;;;5012869;28;20545;-79
2023/10/17 13:28:16;;;;;;;0.10;0.10;;;23.50;77.60;;;;;;5027210;28;20025;-79
2023/10/17 13:30:42;;;;;;;0.20;0.17;;;22.40;78.40;;;;;;5027964;28;20026;-79
2023/10/17 13:33:08;;;;;;;0.00;0.00;;;22.90;78.50;;;;;;5013111;28;20030;-79
2023/10/17 13:35:37;;;;;;;1.75;0.43;;;23.60;77.60;;;;;;5011906;28;20029;-79
2023/10/17 13:38:04;;;;;;;0.13;0.10;;;23.30;77.30;;;;;;4999075;28;20018;-79
2023/10/17 13:40:32;;;;;;;0.47;0.47;;;23.40;76.70;;;;;;5013162;28;20018;-79
2023/10/17 13:43:00;;;;;;;0.30;0.30;;;23.50;76.50;;;;;;5012931;28;20470;-79
2023/10/17 13:45:27;;;;;;;0.73;0.22;;;23.30;77.00;;;;;;5012851;28;20113;-79
2023/10/17 13:47:54;;;;;;;0.00;0.00;;;23.00;75.00;;;;;;5011764;28;20049;-79
2023/10/17 13:50:21;;;;;;;0.43;0.10;;;23.00;75.90;;;;;;5011888;28;20370;-79
2023/10/17 13:52:48;;;;;;;0.00;0.00;;;23.40;75.70;;;;;;5012612;28;20034;-78
2023/10/17 13:55:23;;;;;;;0.30;0.30;;;22.10;75.90;;;;;;5012924;28;20029;-79
2023/10/17 13:57:49;;;;;;;0.08;0.08;;;23.00;75.60;;;;;;5012989;28;20030;-78
2023/10/17 14:00:21;;;;;;;0.28;0.28;;;22.90;75.80;;;;;;5012693;28;20032;-78
2023/10/17 14:02:49;;;;;;;0.25;0.20;;;21.80;74.80;;;;;;5012851;28;20055;-78
2023/10/17 14:05:16;;;;;;;0.00;0.00;;;22.20;75.50;;;;;;5012498;28;20036;-78
2023/10/17 14:07:43;;;;;;;0.03;0.03;;;22.90;77.30;;;;;;5012408;28;20041;-78
2023/10/17 14:10:11;;;;;;;0.80;0.73;;;23.10;75.80;;;;;;5012683;28;20067;-78
2023/10/17 14:12:40;;;;;;;0.00;0.00;;;23.40;74.00;;;;;;5012679;28;20092;-78
2023/10/17 14:15:07;;;;;;;0.00;0.00;;;23.40;72.50;;;;;;5028032;28;20467;-78
2023/10/17 14:17:33;;;;;;;0.10;0.10;;;23.30;72.60;;;;;;5027620;28;20042;-78
2023/10/17 14:20:05;;;;;;;0.63;0.52;;;23.90;72.70;;;;;;5012492;28;20030;-78
2023/10/17 14:22:44;;;;;;;0.10;0.10;;;22.90;73.70;;;;;;5012223;28;20398;-79
2023/10/17 14:25:11;;;;;;;0.70;0.30;;;23.10;73.50;;;;;;5027616;28;20114;-78
2023/10/17 14:27:37;;;;;;;0.68;0.68;;;21.90;73.40;;;;;;5012386;28;20026;-78
2023/10/17 14:30:05;;;;;;;0.75;0.40;;;22.60;74.40;;;;;;5012508;28;20030;-79
2023/10/17 14:32:32;;;;;;;0.15;0.10;;;22.40;73.40;;;;;;5027504;28;20101;-78
2023/10/17 14:34:58;;;;;;;0.00;0.00;;;22.10;74.50;;;;;;5012683;28;20038;-78
2023/10/17 14:37:25;;;;;;;0.00;0.00;;;22.10;74.70;;;;;;5012172;28;20026;-79
2023/10/17 14:39:52;;;;;;;0.00;0.00;;;22.90;74.30;;;;;;5011546;28;20022;-78
2023/10/17 14:42:19;;;;;;;0.00;0.00;;;22.70;73.60;;;;;;5012083;28;20042;-78
2023/10/17 14:44:52;;;;;;;0.32;0.32;;;22.60;73.30;;;;;;5012619;28;20077;-78
2023/10/17 14:47:18;;;;;;;0.00;0.00;;;21.80;73.50;;;;;;5012279;28;20108;-78
2023/10/17 14:49:48;;;;;;;0.00;0.00;;;22.40;74.80;;;;;;5012375;28;20382;-78
2023/10/17 14:52:15;;;;;;;0.00;0.00;;;22.70;73.40;;;;;;5012101;28;20033;-78
2023/10/17 14:54:42;;;;;;;0.15;0.10;;;22.20;75.90;;;;;;5012185;28;20018;-78
2023/10/17 14:57:09;;;;;;;0.00;0.00;;;22.90;74.20;;;;;;5012427;28;20034;-78
2023/10/17 14:59:40;;;;;;;0.00;0.00;;;22.20;74.00;;;;;;5012278;28;20041;-78
2023/10/17 15:02:07;;;;;;;0.00;0.00;;;22.90;74.60;;;;;;5012270;28;20048;-78
2023/10/17 15:04:35;;;;;;;0.10;0.10;;;22.20;73.40;;;;;;5015749;28;20076;-78
2023/10/17 15:07:03;;;;;;;0.17;0.17;;;22.70;73.50;;;;;;5015311;28;20025;-79
2023/10/17 15:09:29;;;;;;;0.10;0.10;;;22.10;73.20;;;;;;5015673;28;20037;-78
2023/10/17 15:11:55;;;;;;;0.00;0.00;;;21.10;74.70;;;;;;5014192;28;20026;-78